Главная страница
METAR-TAF:

METAR-TAF

Аэропорты :

Сённерборг, Дания

широта: 54-58N, долгота: 009-47E, высота над уровнем моря: 7 м

Текущие метеонаблюдения

Эта сводка был подготовлена 43 минут назад, в 21:20 UTC
Ветер 1 Узел от северо-восточный
Температура 12°C
Влажность 82%
Давление 1022 hPa
Видимость 10 км и более

METAR: EKSB 192120Z AUTO 05001KT 9999NDV ///////// 12/09 Q1022

Время: 00:03 (22:03 UTC)


TAF: отсутствует

Метеонаблюдения и прогнозы для более 4000 аэропортов (сводки METAR и TAF).

Имеющиеся станции представлены на карте желтыми и красными точками.

Чтобы увидеть название станции, наведите на нее мышь.

Затем щелкните, чтобы увидеть метеонаблюдения и метеопрогнозы.

Управление картой: чтобы увеличить масштаб, щелкните зеленые кнопки с черным крестиком; чтобы уменьшить масштаб, щелкните зеленую кнопку с тире; для просмотра соседних карт щелкайте зеленые стрелки.


METAR-TAF: